Terminal Aerodrome Forecast
Issued by NWS Jackson, KY

Home | Current Version | Previous Version | Text Only | Print | Product List | Glossary On
Versions: 1 2 3 4 5 6 7 8 9 10 11 12 13 14 15 16 17
702
FTUS43 KJKL 181300 AAA
TAFJKL
TAF AMD
KJKL 181300Z 1813/1912 VRB03KT 2SM BR BKN002 OVC015
      TEMPO 1813/1816 P6SM NSW SCT008 BKN015
     FM181600 VRB03KT P6SM BKN025
     FM181800 VRB03KT P6SM BKN040
     FM182200 VRB03KT P6SM SKC=

USA.gov is the U.S. government's official web portal to all federal, state and local government web resources and services.